Time;durP1;ratioP1;P1;durP2;ratioP2;P2;SDS_P1;SDS_P2;PMS_P1;PMS_P2;Temp;Humidity;BMP_temperature;BMP_pressure;BME280_temperature;BME280_humidity;BME280_pressure;Samples;Min_cycle;Max_cycle;Signal;HPM_P1;HPM_P2
2023/08/09 00:02:06;;;;;;;2.47;1.60;;;14.20;99.90;;;;;;5020511;28;20214;-81
2023/08/09 00:04:32;;;;;;;2.42;1.60;;;13.70;1.00;;;;;;5020393;28;20713;-81
2023/08/09 00:06:58;;;;;;;5.32;1.90;;;14.20;1.00;;;;;;5019652;28;20290;-79
2023/08/09 00:09:23;;;;;;;2.72;1.50;;;14.80;1.00;;;;;;4964694;28;1140893;-81
2023/08/09 00:11:49;;;;;;;2.28;1.70;;;14.50;1.00;;;;;;5022000;28;20239;-82
2023/08/09 00:14:15;;;;;;;3.97;1.92;;;14.10;99.90;;;;;;5020632;28;20179;-81
2023/08/09 00:16:40;;;;;;;3.55;1.67;;;13.70;99.90;;;;;;5020013;28;20210;-82
2023/08/09 00:19:06;;;;;;;2.53;1.65;;;13.70;95.20;;;;;;5021036;28;20255;-81
2023/08/09 00:21:32;;;;;;;2.30;1.52;;;14.50;1.00;;;;;;5021038;28;20226;-81
2023/08/09 00:23:58;;;;;;;3.63;1.75;;;13.70;1.00;;;;;;5021763;28;20187;-81
2023/08/09 00:26:25;;;;;;;2.60;1.60;;;13.80;1.00;;;;;;5021155;28;20195;-82
2023/08/09 00:28:52;;;;;;;2.15;1.70;;;13.80;1.00;;;;;;5021779;28;20203;-81
2023/08/09 00:31:18;;;;;;;1.80;1.70;;;13.90;1.00;;;;;;5021132;28;20192;-81
2023/08/09 00:33:43;;;;;;;1.75;1.48;;;14.90;99.90;;;;;;5022623;28;20638;-80
2023/08/09 00:36:09;;;;;;;2.97;1.90;;;14.00;1.00;;;;;;5021603;28;20184;-81
2023/08/09 00:38:36;;;;;;;2.22;1.67;;;13.90;1.00;;;;;;5021456;28;20203;-81
2023/08/09 00:41:02;;;;;;;2.08;1.88;;;13.90;99.90;;;;;;5022021;28;20214;-82
2023/08/09 00:43:27;;;;;;;2.45;1.70;;;14.70;99.90;;;;;;5021961;28;20176;-82
2023/08/09 00:45:53;;;;;;;2.83;1.92;;;14.90;99.90;;;;;;5021857;28;20179;-81
2023/08/09 00:48:19;;;;;;;3.17;1.60;;;14.50;99.90;;;;;;5021276;28;20353;-81
2023/08/09 00:50:45;;;;;;;2.78;1.70;;;15.20;99.90;;;;;;5022233;28;20186;-81
2023/08/09 00:53:11;;;;;;;2.63;1.70;;;14.00;99.90;;;;;;5021308;28;20294;-80
2023/08/09 00:55:37;;;;;;;3.72;1.70;;;15.10;99.90;;;;;;5022901;28;20204;-81
2023/08/09 00:58:03;;;;;;;3.75;1.83;;;14.10;1.00;;;;;;5021556;28;20195;-81
2023/08/09 01:00:28;;;;;;;2.83;1.80;;;15.00;99.90;;;;;;5021898;28;20277;-80
2023/08/09 01:02:54;;;;;;;1.92;1.50;;;15.10;99.90;;;;;;5023055;28;20167;-80
2023/08/09 01:05:25;;;;;;;3.35;1.77;;;14.40;1.00;;;;;;5021847;28;20202;-81
2023/08/09 01:11:45;;;;;;;2.50;1.35;;;14.00;1.00;;;;;;5022926;28;20279;-80
2023/08/09 01:14:13;;;;;;;2.90;1.70;;;14.00;99.90;;;;;;5005252;28;20196;-81
2023/08/09 01:16:40;;;;;;;5.45;1.48;;;14.60;20.20;;;;;;5023620;28;20222;-81
2023/08/09 01:19:11;;;;;;;2.28;1.42;;;13.90;1.00;;;;;;5022123;28;20250;-81
2023/08/09 01:21:39;;;;;;;2.25;1.50;;;14.40;1.00;;;;;;5023068;28;20822;-80
2023/08/09 01:24:08;;;;;;;4.65;1.65;;;14.00;1.00;;;;;;5022021;28;20248;-80
2023/08/09 01:26:33;;;;;;;1.60;1.50;;;14.00;1.00;;;;;;5022349;28;20191;-80
2023/08/09 01:28:59;;;;;;;1.67;1.40;;;14.00;1.00;;;;;;5008907;28;20244;-80
2023/08/09 01:31:25;;;;;;;2.03;1.60;;;14.00;1.00;;;;;;5010621;28;20237;-80
2023/08/09 01:33:51;;;;;;;1.95;1.40;;;14.00;1.00;;;;;;5010818;28;20183;-80
2023/08/09 01:36:23;;;;;;;2.00;1.52;;;14.00;1.00;;;;;;5010183;28;20190;-81
2023/08/09 01:38:56;;;;;;;2.38;1.50;;;14.50;1.00;;;;;;5012022;28;20554;-82
2023/08/09 01:41:21;;;;;;;4.22;1.52;;;14.00;1.80;;;;;;5029255;28;20204;-82
2023/08/09 01:43:47;;;;;;;2.35;1.40;;;15.00;1.00;;;;;;5011659;28;20195;-81
2023/08/09 01:46:14;;;;;;;2.58;1.65;;;14.00;1.00;;;;;;5029847;28;20184;-80
2023/08/09 01:48:40;;;;;;;1.75;1.45;;;13.90;1.00;;;;;;5013251;28;20182;-81
2023/08/09 01:51:06;;;;;;;2.15;1.58;;;14.00;99.90;;;;;;5013329;28;20247;-80
2023/08/09 01:53:32;;;;;;;1.90;1.50;;;14.10;64.50;;;;;;5012221;28;20187;-81
2023/08/09 01:55:57;;;;;;;1.65;1.38;;;13.90;99.90;;;;;;5013298;28;20314;-80
2023/08/09 01:58:23;;;;;;;2.72;1.40;;;13.90;14.20;;;;;;5031929;28;20202;-81
2023/08/09 02:00:48;;;;;;;3.15;1.67;;;13.80;1.00;;;;;;5014543;28;20227;-81
2023/08/09 02:03:14;;;;;;;2.22;1.70;;;13.80;18.70;;;;;;5014872;28;20179;-80
2023/08/09 02:05:40;;;;;;;2.97;1.60;;;13.80;27.10;;;;;;5012892;28;20206;-79
2023/08/09 02:08:06;;;;;;;2.05;1.50;;;13.80;99.90;;;;;;5012696;28;20255;-80
2023/08/09 02:10:32;;;;;;;1.33;1.23;;;14.60;99.90;;;;;;5012645;28;20183;-81
2023/08/09 02:12:57;;;;;;;1.40;1.30;;;13.70;99.90;;;;;;5014559;28;20176;-81
2023/08/09 02:15:24;;;;;;;1.65;1.55;;;14.60;99.90;;;;;;5015348;28;20183;-80
2023/08/09 02:17:50;;;;;;;2.28;1.55;;;13.70;99.90;;;;;;5028094;28;20199;-82
2023/08/09 02:20:16;;;;;;;3.25;1.50;;;14.90;1.00;;;;;;5027194;28;20175;-83
2023/08/09 02:22:43;;;;;;;1.80;1.45;;;14.40;1.00;;;;;;5027231;28;20630;-82
2023/08/09 02:25:09;;;;;;;2.35;1.88;;;13.80;1.00;;;;;;5025314;28;20179;-84
2023/08/09 02:27:35;;;;;;;2.22;1.70;;;15.40;1.00;;;;;;5009720;28;20199;-82
2023/08/09 02:30:06;;;;;;;1.98;1.48;;;14.10;1.00;;;;;;5009919;28;20247;-83
2023/08/09 02:32:32;;;;;;;2.00;1.50;;;13.50;1.00;;;;;;5027995;28;20168;-82
2023/08/09 02:34:58;;;;;;;2.70;1.40;;;13.50;1.00;;;;;;5008898;28;20187;-81
2023/08/09 02:37:25;;;;;;;2.13;1.60;;;13.40;1.00;;;;;;5026431;28;20211;-83
2023/08/09 02:39:50;;;;;;;1.70;1.33;;;13.30;1.00;;;;;;5009501;28;20189;-84
2023/08/09 02:42:16;;;;;;;2.70;1.60;;;14.00;1.00;;;;;;5009256;28;20271;-81
2023/08/09 02:44:42;;;;;;;3.30;1.30;;;13.40;1.00;;;;;;5010027;28;20243;-80
2023/08/09 02:47:08;;;;;;;1.50;1.40;;;13.20;1.00;;;;;;5009604;28;20200;-81
2023/08/09 02:49:34;;;;;;;1.50;1.40;;;13.10;89.80;;;;;;4993858;28;20270;-81
2023/08/09 02:52:00;;;;;;;1.63;1.45;;;13.10;90.00;;;;;;5010584;28;20274;-82
2023/08/09 02:54:26;;;;;;;2.35;1.55;;;13.00;91.90;;;;;;5009936;28;20207;-82
2023/08/09 02:56:51;;;;;;;2.63;1.40;;;13.90;99.90;;;;;;5001588;28;20223;-81
2023/08/09 02:59:17;;;;;;;1.95;1.38;;;13.20;99.90;;;;;;5016892;28;20172;-80
2023/08/09 03:01:44;;;;;;;2.45;1.50;;;12.90;99.90;;;;;;4998960;28;20215;-79
2023/08/09 03:04:10;;;;;;;2.58;1.42;;;12.80;1.00;;;;;;5016664;28;20572;-81
2023/08/09 03:06:36;;;;;;;3.42;1.83;;;13.10;1.00;;;;;;4998771;28;20209;-82
2023/08/09 03:09:03;;;;;;;3.05;1.58;;;12.90;1.00;;;;;;4999089;28;20279;-82
2023/08/09 03:11:28;;;;;;;2.08;1.50;;;12.80;1.00;;;;;;4998486;28;20191;-81
2023/08/09 03:13:54;;;;;;;3.38;1.85;;;13.10;1.00;;;;;;4999375;28;20184;-81
2023/08/09 03:16:21;;;;;;;2.30;1.65;;;13.60;1.00;;;;;;5016094;28;20182;-81
2023/08/09 03:18:47;;;;;;;2.42;1.52;;;13.00;1.00;;;;;;4998782;28;20200;-80
2023/08/09 03:21:13;;;;;;;3.05;1.60;;;13.00;96.30;;;;;;4998440;28;20216;-81
2023/08/09 03:23:38;;;;;;;3.55;1.70;;;12.50;40.30;;;;;;5016560;28;20250;-81
2023/08/09 03:26:04;;;;;;;1.73;1.63;;;12.40;99.90;;;;;;5016231;28;20175;-82
2023/08/09 03:28:31;;;;;;;1.92;1.50;;;12.50;1.00;;;;;;5016530;28;20178;-81
2023/08/09 03:30:56;;;;;;;2.55;1.60;;;12.70;1.00;;;;;;5017515;28;20180;-82
2023/08/09 03:33:22;;;;;;;2.08;1.60;;;12.30;1.00;;;;;;5016512;28;20171;-81
2023/08/09 03:35:48;;;;;;;2.10;1.80;;;12.90;1.00;;;;;;5016031;28;20172;-82
2023/08/09 03:38:13;;;;;;;2.72;1.80;;;12.40;99.90;;;;;;4998853;28;20203;-81
2023/08/09 03:40:39;;;;;;;2.22;1.50;;;12.80;1.00;;;;;;5015924;28;20203;-81
2023/08/09 03:43:05;;;;;;;2.10;1.73;;;12.30;1.00;;;;;;4998598;28;20562;-81
2023/08/09 03:45:31;;;;;;;4.47;1.95;;;13.10;1.00;;;;;;5016206;28;20171;-83
2023/08/09 03:47:56;;;;;;;2.75;2.00;;;13.30;1.00;;;;;;5015808;28;20195;-81
2023/08/09 03:50:22;;;;;;;2.13;1.92;;;12.80;99.90;;;;;;5015517;28;20171;-81
2023/08/09 03:52:48;;;;;;;5.00;2.05;;;13.00;99.90;;;;;;5015653;28;20172;-83
2023/08/09 03:55:13;;;;;;;3.90;1.58;;;12.80;99.90;;;;;;4997839;28;20558;-81
2023/08/09 03:57:39;;;;;;;3.03;1.77;;;13.80;99.90;;;;;;5015736;28;20657;-81
2023/08/09 04:00:08;;;;;;;2.70;2.13;;;12.90;99.90;;;;;;5015362;28;20547;-80
2023/08/09 04:02:34;;;;;;;3.60;1.73;;;12.40;47.30;;;;;;4997638;28;20184;-80
2023/08/09 04:04:59;;;;;;;2.65;1.90;;;14.00;1.00;;;;;;5015143;28;20226;-81
2023/08/09 04:07:25;;;;;;;3.72;1.92;;;12.50;26.80;;;;;;4998607;28;20230;-81
2023/08/09 04:09:51;;;;;;;5.65;1.75;;;12.30;1.00;;;;;;4996843;28;20661;-82
2023/08/09 04:12:17;;;;;;;2.10;1.60;;;13.30;1.00;;;;;;5014771;28;20183;-81
2023/08/09 04:14:43;;;;;;;5.10;1.80;;;13.20;1.00;;;;;;4997220;28;20179;-81
2023/08/09 04:17:09;;;;;;;2.13;1.92;;;12.80;99.90;;;;;;5014563;28;20195;-82
2023/08/09 04:19:34;;;;;;;2.42;2.05;;;13.00;99.90;;;;;;5014394;28;20186;-81
2023/08/09 04:22:00;;;;;;;2.58;1.90;;;12.90;99.90;;;;;;4996553;28;20577;-80
2023/08/09 04:24:25;;;;;;;2.42;2.08;;;13.20;99.90;;;;;;4996768;28;20176;-81
2023/08/09 04:26:52;;;;;;;4.65;2.17;;;13.90;99.90;;;;;;4995752;28;20203;-80
2023/08/09 04:29:17;;;;;;;3.08;1.60;;;13.40;99.90;;;;;;4996247;28;20247;-81
2023/08/09 04:31:44;;;;;;;2.85;1.88;;;12.40;99.90;;;;;;4996164;28;20211;-81
2023/08/09 04:34:10;;;;;;;2.00;1.63;;;13.20;99.90;;;;;;4996015;28;20664;-80
2023/08/09 04:36:36;;;;;;;4.40;2.15;;;12.50;1.00;;;;;;4995237;28;20226;-81
2023/08/09 04:39:02;;;;;;;2.67;1.83;;;12.60;1.00;;;;;;4995824;28;20334;-81
2023/08/09 04:41:27;;;;;;;2.17;1.73;;;12.40;1.00;;;;;;5013265;28;20633;-81
2023/08/09 04:43:53;;;;;;;2.20;2.00;;;13.10;1.00;;;;;;4995414;28;20654;-81
2023/08/09 04:46:18;;;;;;;2.95;2.00;;;12.70;99.90;;;;;;4995041;28;20206;-82
2023/08/09 04:48:44;;;;;;;3.03;1.98;;;12.60;1.00;;;;;;4996479;28;20267;-82
2023/08/09 04:51:10;;;;;;;3.30;2.05;;;12.70;1.00;;;;;;4997984;28;20727;-81
2023/08/09 04:53:37;;;;;;;3.22;2.00;;;13.50;99.90;;;;;;4997482;28;20190;-80
2023/08/09 04:56:03;;;;;;;3.58;2.25;;;13.10;1.00;;;;;;4997646;28;20214;-81
2023/08/09 04:58:30;;;;;;;2.90;2.15;;;13.30;99.90;;;;;;4997903;28;20191;-80
2023/08/09 05:00:56;;;;;;;2.45;2.10;;;13.70;99.90;;;;;;5015437;28;20329;-82
2023/08/09 05:03:21;;;;;;;3.35;2.30;;;13.50;99.90;;;;;;4997574;28;20233;-82
2023/08/09 05:05:47;;;;;;;2.58;1.90;;;13.60;1.00;;;;;;4997010;28;20270;-81
2023/08/09 05:08:12;;;;;;;4.32;2.17;;;13.90;1.00;;;;;;5015153;28;20203;-81
2023/08/09 05:10:38;;;;;;;3.28;2.15;;;14.00;1.00;;;;;;5015539;28;20650;-81
2023/08/09 05:13:04;;;;;;;4.07;2.17;;;13.90;1.00;;;;;;4997136;28;20198;-83
2023/08/09 05:15:29;;;;;;;2.95;2.13;;;14.00;99.90;;;;;;4996717;28;20176;-81
2023/08/09 05:17:55;;;;;;;2.92;2.05;;;15.20;99.90;;;;;;5014677;28;20257;-83
2023/08/09 05:20:21;;;;;;;3.53;1.60;;;15.70;1.00;;;;;;5015094;28;20179;-81
2023/08/09 05:22:47;;;;;;;1.67;1.50;;;15.80;1.00;;;;;;4996954;28;20638;-81
2023/08/09 05:25:13;;;;;;;5.22;1.85;;;16.60;1.00;;;;;;4996341;28;20190;-81
2023/08/09 05:27:39;;;;;;;3.03;1.80;;;16.20;99.90;;;;;;4997077;28;20286;-81
2023/08/09 05:30:06;;;;;;;2.80;2.05;;;16.00;1.00;;;;;;4996802;28;20175;-80
2023/08/09 05:32:31;;;;;;;4.25;2.17;;;16.10;99.90;;;;;;5013810;28;20263;-81
2023/08/09 05:34:57;;;;;;;5.07;2.17;;;16.20;99.90;;;;;;5012452;28;20776;-81
2023/08/09 05:37:22;;;;;;;3.92;1.83;;;16.00;1.00;;;;;;5015919;28;20341;-80
2023/08/09 05:39:48;;;;;;;3.78;2.17;;;15.80;1.00;;;;;;5033262;28;20656;-83
2023/08/09 05:42:14;;;;;;;5.18;1.90;;;15.60;1.00;;;;;;5016300;28;20210;-84
2023/08/09 05:44:40;;;;;;;2.42;2.10;;;15.90;1.00;;;;;;5034742;28;20175;-81
2023/08/09 05:47:05;;;;;;;2.42;1.55;;;16.70;99.90;;;;;;5000435;28;20206;-81
2023/08/09 05:49:31;;;;;;;3.40;1.88;;;17.50;99.90;;;;;;5016264;28;20179;-81
2023/08/09 05:51:57;;;;;;;2.80;1.70;;;18.50;99.90;;;;;;5034401;28;20186;-81
2023/08/09 05:54:24;;;;;;;3.78;1.50;;;19.80;99.90;;;;;;5016710;28;20182;-82
2023/08/09 05:56:49;;;;;;;2.05;1.33;;;20.40;1.00;;;;;;5034358;28;20222;-81
2023/08/09 05:59:15;;;;;;;1.85;1.40;;;21.00;1.00;;;;;;5033196;28;20269;-81
2023/08/09 06:01:41;;;;;;;3.05;1.73;;;21.50;1.00;;;;;;5015722;28;20207;-82
2023/08/09 06:04:07;;;;;;;2.38;1.52;;;22.10;1.00;;;;;;5033086;28;20691;-82
2023/08/09 06:06:33;;;;;;;3.60;1.58;;;22.50;1.00;;;;;;5032812;28;20191;-82
2023/08/09 06:08:59;;;;;;;3.42;1.80;;;22.70;1.00;;;;;;5032803;28;20202;-82
2023/08/09 06:11:25;;;;;;;3.75;1.65;;;23.30;1.00;;;;;;5035147;28;20182;-84
2023/08/09 06:13:50;;;;;;;3.63;1.63;;;23.80;1.00;;;;;;5033655;28;20179;-81
2023/08/09 06:16:16;;;;;;;2.42;1.60;;;24.30;1.00;;;;;;5018451;28;20248;-81
2023/08/09 06:18:41;;;;;;;2.60;1.65;;;24.70;1.00;;;;;;5018673;28;20716;-83
2023/08/09 06:21:08;;;;;;;3.00;1.42;;;24.60;1.00;;;;;;5018698;28;20563;-81
2023/08/09 06:23:34;;;;;;;2.17;1.40;;;25.20;1.00;;;;;;5018733;28;20198;-82
2023/08/09 06:25:59;;;;;;;2.92;1.20;;;26.30;1.00;;;;;;5035748;28;20175;-82
2023/08/09 06:28:25;;;;;;;2.03;1.10;;;26.90;1.00;;;;;;5018568;28;20195;-82
2023/08/09 06:30:51;;;;;;;2.53;1.15;;;26.30;1.00;;;;;;5049682;28;20566;-81
2023/08/09 06:33:16;;;;;;;3.85;1.30;;;25.30;1.00;;;;;;5057554;28;20186;-82
2023/08/09 06:35:42;;;;;;;2.03;1.20;;;24.80;1.00;;;;;;5036967;28;20262;-83
2023/08/09 06:38:07;;;;;;;2.55;1.13;;;25.20;1.00;;;;;;5032575;28;20206;-82
2023/08/09 06:40:33;;;;;;;2.88;1.42;;;25.30;1.00;;;;;;5016385;28;20298;-82
2023/08/09 06:42:59;;;;;;;1.70;1.00;;;26.20;1.00;;;;;;5027442;28;20205;-83
2023/08/09 06:45:24;;;;;;;2.38;1.10;;;27.00;1.00;;;;;;5058145;28;20198;-83
2023/08/09 06:47:50;;;;;;;3.13;0.93;;;27.40;1.00;;;;;;5059299;28;20206;-82
2023/08/09 06:50:15;;;;;;;4.18;1.20;;;28.10;1.00;;;;;;5040846;28;20175;-83
2023/08/09 06:52:41;;;;;;;1.95;0.90;;;27.10;1.00;;;;;;5011602;28;20175;-81
2023/08/09 06:55:08;;;;;;;1.83;1.00;;;26.60;1.00;;;;;;5039705;28;20253;-85
2023/08/09 06:57:34;;;;;;;1.80;0.70;;;26.50;1.00;;;;;;5021439;28;20199;-82
2023/08/09 07:00:01;;;;;;;2.38;1.00;;;26.50;1.00;;;;;;5038963;28;20171;-82
2023/08/09 07:02:26;;;;;;;1.17;0.70;;;26.90;1.00;;;;;;5021984;28;20211;-83
2023/08/09 07:04:54;;;;;;;2.58;1.00;;;26.70;1.00;;;;;;5021913;28;20178;-83
2023/08/09 07:07:22;;;;;;;2.13;0.90;;;27.40;1.00;;;;;;5038677;28;20191;-81
2023/08/09 07:09:49;;;;;;;2.03;1.00;;;27.10;1.00;;;;;;5020305;28;20198;-82
2023/08/09 07:12:14;;;;;;;2.53;1.15;;;25.50;1.00;;;;;;5018377;28;20179;-81
2023/08/09 07:14:40;;;;;;;1.73;1.00;;;25.60;1.00;;;;;;5016622;28;20185;-81
2023/08/09 07:17:07;;;;;;;2.20;0.93;;;26.20;1.00;;;;;;5034440;28;20241;-82
2023/08/09 07:19:32;;;;;;;2.92;1.20;;;26.40;1.00;;;;;;5033828;28;20173;-80
2023/08/09 07:21:58;;;;;;;6.07;1.10;;;24.70;1.00;;;;;;5016057;28;20207;-80
2023/08/09 07:24:24;;;;;;;7.60;1.90;;;22.40;1.00;;;;;;5015932;28;20244;-81
2023/08/09 07:26:49;;;;;;;4.82;1.70;;;20.40;1.00;;;;;;5032100;28;20201;-81
2023/08/09 07:29:15;;;;;;;3.80;1.25;;;19.20;1.00;;;;;;5017733;28;20179;-80
2023/08/09 07:31:40;;;;;;;3.95;1.30;;;18.70;1.00;;;;;;5018035;28;20189;-83
2023/08/09 07:34:06;;;;;;;4.32;1.45;;;18.30;1.00;;;;;;5018306;28;20187;-81
2023/08/09 07:36:31;;;;;;;2.72;1.13;;;18.00;1.00;;;;;;5017418;28;20206;-81
2023/08/09 07:38:58;;;;;;;4.55;1.35;;;17.50;1.00;;;;;;5017971;28;20232;-79
2023/08/09 07:41:24;;;;;;;4.45;1.35;;;17.50;1.00;;;;;;5035533;28;20195;-81
2023/08/09 07:43:50;;;;;;;2.45;1.02;;;17.50;1.00;;;;;;5035389;28;20174;-80
2023/08/09 07:46:16;;;;;;;1.98;1.00;;;18.00;1.00;;;;;;5017161;28;20167;-84
2023/08/09 07:48:41;;;;;;;2.33;1.05;;;17.60;1.00;;;;;;5035615;28;20229;-81
2023/08/09 07:51:11;;;;;;;3.92;1.48;;;17.50;1.00;;;;;;5035178;28;20183;-82
2023/08/09 07:53:40;;;;;;;1.80;1.00;;;17.70;1.00;;;;;;5017582;28;20179;-81
2023/08/09 07:56:05;;;;;;;3.70;1.58;;;17.50;1.00;;;;;;5016195;28;20183;-82
2023/08/09 07:58:31;;;;;;;5.22;1.02;;;17.50;1.00;;;;;;5034574;28;20183;-82
2023/08/09 08:00:58;;;;;;;3.45;1.25;;;17.50;1.00;;;;;;5016512;28;20210;-81
2023/08/09 08:03:23;;;;;;;3.88;1.13;;;17.70;1.00;;;;;;5034275;28;20171;-83
2023/08/09 08:05:49;;;;;;;4.40;1.10;;;17.60;1.00;;;;;;5034115;28;20171;-81
2023/08/09 08:08:17;;;;;;;4.53;1.25;;;17.70;1.00;;;;;;5016501;28;20581;-81
2023/08/09 08:10:43;;;;;;;4.82;1.30;;;18.20;1.00;;;;;;5016276;28;20183;-82
2023/08/09 08:13:09;;;;;;;3.58;1.00;;;17.80;1.00;;;;;;5016692;28;20187;-82
2023/08/09 08:15:36;;;;;;;3.95;1.10;;;18.00;1.00;;;;;;5033686;28;20238;-81
2023/08/09 08:18:03;;;;;;;3.35;1.08;;;18.20;1.00;;;;;;5033436;28;20386;-82
2023/08/09 08:20:29;;;;;;;1.80;1.05;;;18.10;1.00;;;;;;5033826;28;20261;-82
2023/08/09 08:22:54;;;;;;;2.15;1.02;;;17.90;1.00;;;;;;5015740;28;20262;-82
2023/08/09 08:25:20;;;;;;;3.72;1.17;;;17.40;1.00;;;;;;5016452;28;20186;-81
2023/08/09 08:27:46;;;;;;;3.15;1.10;;;17.70;1.00;;;;;;5018315;28;20229;-83
2023/08/09 08:30:17;;;;;;;5.97;1.48;;;18.00;1.00;;;;;;5017801;28;20284;-83
2023/08/09 08:32:44;;;;;;;2.55;1.10;;;17.80;1.00;;;;;;5035771;28;20228;-83
2023/08/09 08:35:11;;;;;;;3.25;1.00;;;18.30;1.00;;;;;;5018361;28;20193;-82
2023/08/09 08:37:38;;;;;;;2.70;1.00;;;18.10;1.00;;;;;;5017901;28;20700;-83
2023/08/09 08:40:07;;;;;;;3.80;1.13;;;18.10;1.00;;;;;;5035855;28;20167;-85
2023/08/09 08:42:34;;;;;;;3.60;1.15;;;18.00;1.00;;;;;;5035412;28;20597;-82
2023/08/09 08:45:00;;;;;;;3.00;1.13;;;18.10;1.00;;;;;;5027681;28;20541;-84
2023/08/09 08:47:26;;;;;;;2.65;1.10;;;18.20;1.00;;;;;;5051360;28;20193;-82
2023/08/09 08:49:57;;;;;;;2.80;0.93;;;18.60;1.00;;;;;;5020763;28;20197;-82
2023/08/09 08:52:26;;;;;;;2.53;0.95;;;18.50;1.00;;;;;;5039725;28;20167;-82
2023/08/09 08:54:51;;;;;;;3.42;1.08;;;18.40;1.00;;;;;;5057808;28;20171;-81
2023/08/09 08:57:17;;;;;;;2.20;0.93;;;18.60;1.00;;;;;;5056894;28;20679;-82
2023/08/09 08:59:43;;;;;;;2.33;0.95;;;18.30;1.00;;;;;;5019836;28;20175;-83
2023/08/09 09:02:08;;;;;;;1.65;0.80;;;18.00;1.00;;;;;;5036443;28;20205;-83
2023/08/09 09:04:36;;;;;;;3.03;1.02;;;18.00;1.00;;;;;;5018742;28;20232;-84
2023/08/09 09:07:01;;;;;;;1.77;0.95;;;18.00;1.00;;;;;;5037530;28;20189;-83
2023/08/09 09:09:27;;;;;;;1.88;0.98;;;18.00;1.00;;;;;;5038755;28;20655;-83
2023/08/09 09:11:53;;;;;;;2.70;1.20;;;18.20;1.00;;;;;;5038307;28;20186;-84
2023/08/09 09:14:18;;;;;;;2.85;0.93;;;18.30;1.00;;;;;;5027150;28;20186;-85
2023/08/09 09:16:45;;;;;;;2.97;1.00;;;18.40;1.00;;;;;;5023347;28;20194;-83
2023/08/09 09:19:11;;;;;;;2.35;0.80;;;18.50;1.00;;;;;;5023202;28;20174;-82
2023/08/09 09:21:37;;;;;;;3.55;0.95;;;18.30;1.00;;;;;;5022698;28;20202;-81
2023/08/09 09:24:07;;;;;;;2.58;1.08;;;18.10;1.00;;;;;;5020844;28;20266;-84
2023/08/09 09:26:34;;;;;;;2.50;1.10;;;18.20;1.00;;;;;;5010539;28;20203;-81
2023/08/09 09:29:08;;;;;;;1.25;0.90;;;18.40;1.00;;;;;;5017019;28;20171;-82
2023/08/09 09:31:38;;;;;;;3.20;1.15;;;18.60;1.00;;;;;;5022082;28;20214;-84
2023/08/09 09:34:04;;;;;;;2.05;0.90;;;18.80;1.00;;;;;;5023087;28;20204;-82
2023/08/09 09:36:29;;;;;;;2.42;1.00;;;18.90;1.00;;;;;;5021537;28;20282;-84
2023/08/09 09:38:56;;;;;;;1.88;0.90;;;18.90;1.00;;;;;;5021773;28;20190;-84
2023/08/09 09:41:22;;;;;;;1.95;0.70;;;18.80;1.00;;;;;;5020538;28;20202;-84
2023/08/09 09:43:50;;;;;;;1.60;0.50;;;18.70;1.00;;;;;;5020759;28;20240;-84
2023/08/09 09:46:20;;;;;;;3.97;0.75;;;18.70;1.00;;;;;;5020331;28;20262;-84
2023/08/09 09:49:00;;;;;;;0.95;0.70;;;18.90;1.00;;;;;;5022033;28;20198;-82
2023/08/09 09:51:26;;;;;;;1.20;0.80;;;19.10;1.00;;;;;;5025775;28;20201;-83
2023/08/09 09:53:51;;;;;;;0.65;0.63;;;19.20;1.00;;;;;;5025305;28;20549;-82
2023/08/09 09:56:17;;;;;;;3.10;0.90;;;19.40;1.00;;;;;;5023856;28;20195;-82
2023/08/09 09:58:43;;;;;;;1.95;0.70;;;19.50;1.00;;;;;;5023766;28;20179;-83
2023/08/09 10:01:11;;;;;;;3.00;0.60;;;19.40;1.00;;;;;;5024159;28;20289;-83
2023/08/09 10:03:42;;;;;;;2.75;0.82;;;19.30;1.00;;;;;;5021647;28;20193;-83
2023/08/09 10:06:13;;;;;;;1.27;0.60;;;19.20;1.00;;;;;;5021270;28;20269;-85
2023/08/09 10:08:40;;;;;;;2.58;0.70;;;19.10;1.00;;;;;;5023884;28;20187;-82
2023/08/09 10:11:08;;;;;;;1.55;0.68;;;19.00;1.00;;;;;;5024263;28;20213;-83
2023/08/09 10:13:36;;;;;;;3.38;0.82;;;19.10;1.00;;;;;;5024052;28;20179;-83
2023/08/09 10:16:05;;;;;;;1.40;0.73;;;19.20;1.00;;;;;;5043506;28;20182;-83
2023/08/09 10:18:39;;;;;;;1.35;0.80;;;19.20;1.00;;;;;;5033456;28;20190;-84
2023/08/09 10:21:06;;;;;;;2.60;0.60;;;19.40;1.00;;;;;;5040332;28;20183;-83
2023/08/09 10:23:32;;;;;;;3.58;0.82;;;19.30;1.00;;;;;;5020590;28;20171;-80
2023/08/09 10:25:58;;;;;;;3.13;0.70;;;19.40;1.00;;;;;;5020891;28;20185;-81
2023/08/09 10:28:45;;;;;;;2.25;0.90;;;19.40;1.00;;;;;;5022270;28;20213;-82
2023/08/09 10:31:13;;;;;;;1.52;0.60;;;19.40;1.00;;;;;;5037856;28;20570;-82
2023/08/09 10:33:42;;;;;;;2.03;0.45;;;19.30;1.00;;;;;;5037506;28;20171;-82
2023/08/09 10:36:13;;;;;;;2.88;0.68;;;19.40;1.00;;;;;;5021374;28;20186;-80
2023/08/09 10:38:40;;;;;;;2.45;0.75;;;19.30;1.00;;;;;;5040311;28;20178;-82
2023/08/09 10:41:11;;;;;;;2.85;0.70;;;19.30;1.00;;;;;;5020960;28;20245;-83
2023/08/09 10:43:37;;;;;;;1.48;0.70;;;19.20;1.00;;;;;;5023775;28;20238;-83
2023/08/09 10:46:19;;;;;;;0.68;0.50;;;19.20;1.00;;;;;;5022232;28;20209;-83
2023/08/09 10:49:00;;;;;;;1.90;1.00;;;19.20;1.00;;;;;;5041059;28;20725;-82
2023/08/09 10:51:26;;;;;;;1.38;0.60;;;19.40;1.00;;;;;;5050649;28;20182;-82
2023/08/09 10:53:58;;;;;;;1.63;0.80;;;19.30;1.00;;;;;;5042773;28;20225;-82
2023/08/09 10:56:31;;;;;;;2.05;0.80;;;19.40;1.00;;;;;;5039384;28;20594;-81
2023/08/09 10:59:06;;;;;;;1.20;0.75;;;19.40;1.00;;;;;;5040910;28;20281;-81
2023/08/09 11:01:33;;;;;;;2.58;0.63;;;19.60;1.00;;;;;;5061671;28;20189;-82
2023/08/09 11:03:59;;;;;;;1.13;0.50;;;19.70;1.00;;;;;;5043848;28;20561;-81
2023/08/09 11:06:36;;;;;;;2.22;0.63;;;20.00;1.00;;;;;;5028274;28;20321;-82
2023/08/09 11:09:17;;;;;;;2.60;0.70;;;20.10;1.00;;;;;;5004400;28;20222;-80
2023/08/09 11:11:44;;;;;;;0.82;0.50;;;20.20;1.00;;;;;;5003755;28;20179;-83
2023/08/09 11:14:11;;;;;;;1.75;0.57;;;20.50;1.00;;;;;;5022565;28;20180;-81
2023/08/09 11:16:37;;;;;;;2.80;0.60;;;20.50;1.00;;;;;;5004447;28;20199;-81
2023/08/09 11:19:12;;;;;;;2.38;0.80;;;20.50;1.00;;;;;;5023075;28;20266;-80
2023/08/09 11:21:45;;;;;;;1.90;0.90;;;20.40;1.00;;;;;;5023828;28;20227;-83
2023/08/09 11:24:12;;;;;;;1.85;0.60;;;20.20;1.00;;;;;;5005118;28;20597;-80
2023/08/09 11:26:44;;;;;;;1.02;0.60;;;20.20;1.00;;;;;;5022086;28;20204;-81
2023/08/09 11:29:10;;;;;;;1.65;0.80;;;20.30;1.00;;;;;;5022773;28;20186;-81
2023/08/09 11:31:44;;;;;;;1.73;0.90;;;20.50;1.00;;;;;;5021985;28;20172;-82
2023/08/09 11:34:15;;;;;;;1.10;0.77;;;20.70;1.00;;;;;;5003394;28;20168;-82
2023/08/09 11:36:42;;;;;;;2.78;0.70;;;21.20;1.00;;;;;;5021213;28;20195;-81
2023/08/09 11:39:10;;;;;;;2.55;0.75;;;21.30;1.00;;;;;;5003617;28;20224;-81
2023/08/09 11:41:57;;;;;;;1.40;0.65;;;21.30;1.00;;;;;;5015182;28;20206;-81
2023/08/09 11:44:27;;;;;;;2.40;0.57;;;21.30;1.00;;;;;;5020895;28;20644;-81
2023/08/09 11:46:54;;;;;;;2.00;0.70;;;21.40;1.00;;;;;;5024074;28;20237;-80
2023/08/09 11:49:33;;;;;;;2.05;0.73;;;21.30;1.00;;;;;;5044146;28;20641;-81
2023/08/09 11:52:00;;;;;;;1.05;0.60;;;20.90;1.00;;;;;;5040658;28;20181;-82
2023/08/09 11:54:26;;;;;;;1.08;0.80;;;20.50;1.00;;;;;;5064003;28;20202;-82
2023/08/09 11:56:52;;;;;;;2.72;0.70;;;20.40;1.00;;;;;;5059064;28;20198;-80
2023/08/09 11:59:19;;;;;;;1.13;0.82;;;20.60;1.00;;;;;;5059967;28;20193;-80
2023/08/09 12:01:47;;;;;;;1.52;0.70;;;20.80;1.00;;;;;;5039308;28;20251;-80
2023/08/09 12:04:14;;;;;;;2.85;1.17;;;20.80;1.00;;;;;;5038246;28;20174;-80
2023/08/09 12:06:50;;;;;;;1.52;0.70;;;20.60;1.00;;;;;;5056677;28;20225;-82
2023/08/09 12:09:39;;;;;;;1.88;0.65;;;20.70;1.00;;;;;;5037694;28;20190;-82
2023/08/09 12:12:06;;;;;;;2.47;0.60;;;20.70;1.00;;;;;;5036363;28;20690;-81
2023/08/09 12:14:34;;;;;;;1.15;0.50;;;21.00;1.00;;;;;;5037791;28;20179;-81
2023/08/09 12:17:00;;;;;;;2.55;0.70;;;21.00;1.00;;;;;;5036860;28;20213;-81
2023/08/09 12:19:26;;;;;;;2.47;0.70;;;21.10;1.00;;;;;;5054941;28;20256;-81
2023/08/09 12:21:52;;;;;;;2.40;0.50;;;21.00;1.00;;;;;;5056258;28;20198;-81
2023/08/09 12:24:18;;;;;;;0.60;0.40;;;21.00;1.00;;;;;;5055873;28;20191;-82
2023/08/09 12:26:43;;;;;;;2.47;0.90;;;21.20;1.00;;;;;;5055523;28;20263;-81
2023/08/09 12:29:12;;;;;;;2.22;0.70;;;21.10;1.00;;;;;;5037838;28;20670;-81
2023/08/09 12:31:38;;;;;;;1.30;0.80;;;21.00;1.00;;;;;;5055647;28;20217;-82
2023/08/09 12:34:04;;;;;;;1.40;0.50;;;20.90;1.00;;;;;;5039717;28;20200;-81
2023/08/09 12:36:30;;;;;;;1.50;0.60;;;21.20;1.00;;;;;;5038617;28;20237;-81
2023/08/09 12:38:56;;;;;;;1.27;0.70;;;21.10;1.00;;;;;;5055123;28;20185;-79
2023/08/09 12:41:23;;;;;;;1.85;0.85;;;21.10;1.00;;;;;;5036512;28;20206;-81
2023/08/09 12:43:48;;;;;;;0.80;0.63;;;20.80;1.00;;;;;;5054310;28;20699;-81
2023/08/09 12:46:14;;;;;;;2.22;0.93;;;20.70;1.00;;;;;;5053928;28;20209;-81
2023/08/09 12:48:40;;;;;;;1.08;0.40;;;20.70;1.00;;;;;;5053934;28;20178;-81
2023/08/09 12:51:05;;;;;;;1.30;0.70;;;20.60;1.00;;;;;;5053716;28;20189;-81
2023/08/09 12:53:31;;;;;;;1.17;0.70;;;20.60;1.00;;;;;;5053274;28;20640;-81
2023/08/09 12:55:57;;;;;;;1.65;0.60;;;20.60;1.00;;;;;;5034697;28;20364;-81
2023/08/09 12:58:23;;;;;;;2.28;0.80;;;20.60;1.00;;;;;;5029073;28;20203;-82